Time;durP1;ratioP1;P1;durP2;ratioP2;P2;SDS_P1;SDS_P2;PMS_P1;PMS_P2;Temp;Humidity;BMP_temperature;BMP_pressure;BME280_temperature;BME280_humidity;BME280_pressure;Samples;Min_cycle;Max_cycle;Signal;HPM_P1;HPM_P2
2021/10/08 00:02:20;;;;;;;0.20;0.20;;;11.00;99.90;;;;;;4992191;28;20066;-74
2021/10/08 00:04:46;;;;;;;0.47;0.47;;;11.00;99.90;;;;;;4974351;28;20030;-74
2021/10/08 00:07:12;;;;;;;0.10;0.10;;;10.90;99.90;;;;;;4992109;28;20026;-75
2021/10/08 00:09:38;;;;;;;0.10;0.10;;;10.80;99.90;;;;;;4974707;28;20053;-72
2021/10/08 00:12:04;;;;;;;0.10;0.10;;;10.80;99.90;;;;;;4994369;28;20034;-74
2021/10/08 00:14:31;;;;;;;0.10;0.10;;;10.80;99.90;;;;;;4977974;28;20041;-74
2021/10/08 00:16:57;;;;;;;0.10;0.10;;;10.80;99.90;;;;;;4962053;28;20030;-74
2021/10/08 00:19:23;;;;;;;0.20;0.20;;;10.80;99.90;;;;;;4995507;28;20501;-74
2021/10/08 00:21:49;;;;;;;0.30;0.30;;;10.90;99.90;;;;;;4995502;28;20093;-75
2021/10/08 00:24:14;;;;;;;0.10;0.10;;;10.80;99.90;;;;;;4978031;28;20109;-74
2021/10/08 00:26:40;;;;;;;0.15;0.15;;;10.80;99.90;;;;;;4961677;28;20066;-74
2021/10/08 00:29:07;;;;;;;0.20;0.20;;;10.70;99.90;;;;;;4995367;28;20046;-74
2021/10/08 00:31:33;;;;;;;0.20;0.20;;;10.80;99.90;;;;;;4977921;28;20053;-74
2021/10/08 00:33:59;;;;;;;0.38;0.38;;;10.70;99.90;;;;;;4995293;28;20470;-74
2021/10/08 00:36:24;;;;;;;0.10;0.10;;;10.60;99.90;;;;;;4995142;28;20027;-74
2021/10/08 00:38:52;;;;;;;0.10;0.10;;;10.50;99.90;;;;;;4995202;28;20025;-74
2021/10/08 00:41:22;;;;;;;0.20;0.20;;;10.50;99.90;;;;;;4977773;28;20497;-74
2021/10/08 00:43:48;;;;;;;0.10;0.10;;;10.60;99.90;;;;;;4995186;28;20363;-74
2021/10/08 00:46:14;;;;;;;0.10;0.10;;;10.50;99.90;;;;;;4995069;28;20030;-74
2021/10/08 00:48:41;;;;;;;0.10;0.10;;;10.50;99.90;;;;;;4994952;28;20040;-74
2021/10/08 00:51:07;;;;;;;0.10;0.10;;;10.70;99.90;;;;;;4995100;28;20034;-74
2021/10/08 00:53:33;;;;;;;0.70;0.63;;;10.60;99.90;;;;;;4994916;28;20022;-74
2021/10/08 00:56:00;;;;;;;0.20;0.20;;;10.50;99.90;;;;;;4977369;28;20029;-75
2021/10/08 00:58:26;;;;;;;0.20;0.20;;;10.50;99.90;;;;;;4977409;28;20041;-74
2021/10/08 01:00:53;;;;;;;0.30;0.30;;;10.60;99.90;;;;;;4977275;28;20407;-74
2021/10/08 01:03:21;;;;;;;0.10;0.10;;;10.60;99.90;;;;;;4976994;28;20367;-74
2021/10/08 01:05:48;;;;;;;0.30;0.30;;;10.70;99.90;;;;;;4977232;28;20482;-74
2021/10/08 01:08:14;;;;;;;0.40;0.40;;;10.50;99.90;;;;;;4994702;28;20130;-74
2021/10/08 01:10:42;;;;;;;0.10;0.10;;;10.50;99.90;;;;;;4994637;28;20054;-74
2021/10/08 01:13:10;;;;;;;0.20;0.20;;;10.30;99.90;;;;;;4994584;28;20018;-74
2021/10/08 01:15:37;;;;;;;0.20;0.20;;;10.40;99.90;;;;;;4994500;28;20015;-74
2021/10/08 01:18:04;;;;;;;0.70;0.52;;;10.40;99.90;;;;;;4977154;28;20085;-74
2021/10/08 01:20:30;;;;;;;0.20;0.20;;;10.40;99.90;;;;;;4994550;28;20025;-74
2021/10/08 01:22:58;;;;;;;0.10;0.10;;;10.40;99.90;;;;;;4993951;28;20467;-74
2021/10/08 01:25:26;;;;;;;0.32;0.32;;;10.60;99.90;;;;;;4976806;28;20022;-74
2021/10/08 01:27:53;;;;;;;0.10;0.10;;;10.70;99.90;;;;;;4994295;28;20502;-74
2021/10/08 01:30:19;;;;;;;0.10;0.10;;;10.60;99.90;;;;;;4994409;28;20062;-75
2021/10/08 01:32:46;;;;;;;0.10;0.10;;;10.60;99.90;;;;;;4976831;28;20022;-74
2021/10/08 01:35:12;;;;;;;0.10;0.10;;;10.60;99.90;;;;;;4994038;28;20117;-74
2021/10/08 01:37:38;;;;;;;0.10;0.10;;;10.70;99.90;;;;;;4960615;28;20122;-74
2021/10/08 01:40:05;;;;;;;0.10;0.10;;;10.70;99.90;;;;;;4976597;28;20506;-75
2021/10/08 01:42:31;;;;;;;0.10;0.10;;;10.70;99.90;;;;;;4994052;28;20117;-75
2021/10/08 01:44:58;;;;;;;0.10;0.10;;;10.80;99.90;;;;;;4993831;28;20117;-74
2021/10/08 01:47:25;;;;;;;0.17;0.17;;;10.80;99.90;;;;;;4993933;28;20493;-74
2021/10/08 01:49:51;;;;;;;0.15;0.15;;;10.70;99.90;;;;;;4993947;28;20038;-75
2021/10/08 01:52:17;;;;;;;0.20;0.20;;;10.70;99.90;;;;;;4993844;28;20506;-74
2021/10/08 01:54:43;;;;;;;0.10;0.10;;;10.80;99.90;;;;;;4976073;28;20438;-74
2021/10/08 01:57:09;;;;;;;0.10;0.10;;;10.70;99.90;;;;;;4993757;28;20030;-74
2021/10/08 01:59:34;;;;;;;0.10;0.10;;;10.60;99.90;;;;;;4993739;28;20023;-75
2021/10/08 02:02:00;;;;;;;0.10;0.10;;;10.70;99.90;;;;;;4976236;28;20027;-74
2021/10/08 02:04:26;;;;;;;0.25;0.25;;;10.70;99.90;;;;;;4993225;28;20034;-74
2021/10/08 02:06:51;;;;;;;0.10;0.10;;;10.70;99.90;;;;;;4993398;28;20034;-74
2021/10/08 02:09:17;;;;;;;0.20;0.20;;;10.70;99.90;;;;;;4993539;28;20030;-75
2021/10/08 02:11:43;;;;;;;0.10;0.10;;;10.70;99.90;;;;;;4993634;28;20050;-74
2021/10/08 02:14:09;;;;;;;0.10;0.10;;;10.70;99.90;;;;;;4976015;28;20426;-74
2021/10/08 02:16:35;;;;;;;0.15;0.15;;;10.70;99.90;;;;;;4975820;28;20029;-74
2021/10/08 02:19:01;;;;;;;2.83;1.75;;;10.70;99.90;;;;;;4993278;28;20068;-74
2021/10/08 02:21:27;;;;;;;0.10;0.10;;;10.70;99.90;;;;;;4975848;28;20064;-74
2021/10/08 02:23:53;;;;;;;0.10;0.10;;;10.70;99.90;;;;;;4993318;28;20027;-75
2021/10/08 02:26:19;;;;;;;0.45;0.45;;;10.40;99.90;;;;;;4993131;28;20053;-75
2021/10/08 02:28:45;;;;;;;0.10;0.10;;;10.50;99.90;;;;;;4975784;28;20026;-74
2021/10/08 02:31:12;;;;;;;0.10;0.10;;;10.60;99.90;;;;;;4975913;28;20026;-75
2021/10/08 02:33:37;;;;;;;0.20;0.20;;;10.50;99.90;;;;;;4992346;28;20026;-75
2021/10/08 02:36:05;;;;;;;0.10;0.10;;;10.30;99.90;;;;;;4975418;28;20026;-75
2021/10/08 02:38:31;;;;;;;0.10;0.10;;;10.40;99.90;;;;;;4975670;28;20049;-74
2021/10/08 02:40:58;;;;;;;0.10;0.10;;;10.60;99.90;;;;;;4993044;28;20486;-75
2021/10/08 02:43:23;;;;;;;0.15;0.15;;;10.50;99.90;;;;;;4993115;28;20055;-74
2021/10/08 02:45:49;;;;;;;0.20;0.20;;;10.40;99.90;;;;;;4992778;28;20030;-74
2021/10/08 02:48:15;;;;;;;0.60;0.60;;;10.60;99.90;;;;;;4992952;28;20030;-74
2021/10/08 02:50:41;;;;;;;4.05;0.98;;;10.50;99.90;;;;;;4992844;28;20141;-74
2021/10/08 02:53:08;;;;;;;0.20;0.20;;;10.30;99.90;;;;;;4992779;28;20057;-74
2021/10/08 02:55:33;;;;;;;0.13;0.13;;;10.10;99.90;;;;;;4959257;28;20050;-74
2021/10/08 02:57:59;;;;;;;0.10;0.10;;;10.00;99.90;;;;;;4975180;28;20060;-74
2021/10/08 03:00:25;;;;;;;0.13;0.13;;;10.10;99.90;;;;;;4992775;28;20022;-74
2021/10/08 03:02:51;;;;;;;8.07;5.57;;;10.40;99.90;;;;;;4975064;28;20030;-74
2021/10/08 03:05:16;;;;;;;0.10;0.10;;;10.50;99.90;;;;;;4992484;28;20030;-74
2021/10/08 03:07:42;;;;;;;0.10;0.10;;;10.60;99.90;;;;;;4975279;28;20058;-75
2021/10/08 03:10:09;;;;;;;0.20;0.20;;;10.70;99.90;;;;;;4992750;28;20062;-74
2021/10/08 03:12:35;;;;;;;0.10;0.10;;;10.70;99.90;;;;;;4992732;28;20058;-74
2021/10/08 03:15:01;;;;;;;0.10;0.10;;;10.80;99.90;;;;;;4974875;28;20068;-74
2021/10/08 03:17:27;;;;;;;0.10;0.10;;;10.80;99.90;;;;;;4992481;28;20030;-74
2021/10/08 03:19:53;;;;;;;0.10;0.10;;;10.70;99.90;;;;;;4992582;28;20084;-75
2021/10/08 03:22:19;;;;;;;0.52;0.52;;;10.80;99.90;;;;;;4992561;28;20637;-74
2021/10/08 03:24:45;;;;;;;0.17;0.17;;;10.70;99.90;;;;;;4992312;28;20065;-74
2021/10/08 03:27:11;;;;;;;0.15;0.15;;;10.70;99.90;;;;;;4975039;28;20022;-74
2021/10/08 03:29:36;;;;;;;0.10;0.10;;;10.60;99.90;;;;;;4974906;28;20041;-75
2021/10/08 03:32:03;;;;;;;0.20;0.20;;;10.60;99.90;;;;;;4992400;28;20026;-74
2021/10/08 03:34:28;;;;;;;0.10;0.10;;;10.50;99.90;;;;;;4958735;28;20498;-75
2021/10/08 03:37:01;;;;;;;0.10;0.10;;;10.70;99.90;;;;;;4992354;28;20022;-74
2021/10/08 03:39:30;;;;;;;0.10;0.10;;;10.70;99.90;;;;;;4974981;28;20027;-74
2021/10/08 03:41:56;;;;;;;0.13;0.13;;;10.90;99.90;;;;;;4992364;28;20034;-75
2021/10/08 03:44:23;;;;;;;0.10;0.10;;;10.90;99.90;;;;;;4974870;28;20026;-74
2021/10/08 03:46:55;;;;;;;0.10;0.10;;;11.00;99.90;;;;;;4978494;28;20092;-74
2021/10/08 03:49:24;;;;;;;0.20;0.20;;;10.80;99.90;;;;;;4996152;28;20022;-74
2021/10/08 03:51:52;;;;;;;15.60;14.15;;;10.70;99.90;;;;;;4978654;28;20034;-74
2021/10/08 03:54:19;;;;;;;0.10;0.10;;;10.70;99.90;;;;;;4995975;28;20038;-74
2021/10/08 03:56:46;;;;;;;0.10;0.10;;;10.60;99.90;;;;;;4978366;28;20026;-75
2021/10/08 03:59:12;;;;;;;1.33;0.95;;;10.60;99.90;;;;;;4995914;28;20019;-74
2021/10/08 04:01:38;;;;;;;0.10;0.10;;;10.60;99.90;;;;;;4978403;28;20633;-75
2021/10/08 04:04:06;;;;;;;0.10;0.10;;;10.60;99.90;;;;;;4978076;28;20117;-74
2021/10/08 04:06:33;;;;;;;0.15;0.15;;;10.60;99.90;;;;;;4995687;28;20475;-74
2021/10/08 04:09:00;;;;;;;0.40;0.40;;;10.70;99.90;;;;;;4995639;28;20027;-74
2021/10/08 04:11:27;;;;;;;0.13;0.13;;;10.60;99.90;;;;;;4995878;28;20031;-74
2021/10/08 04:13:53;;;;;;;0.10;0.10;;;10.40;99.90;;;;;;4995697;28;20387;-74
2021/10/08 04:16:20;;;;;;;0.10;0.10;;;10.60;99.90;;;;;;4978010;28;20023;-75
2021/10/08 04:18:46;;;;;;;0.10;0.10;;;10.60;99.90;;;;;;4995538;28;20050;-75
2021/10/08 04:21:11;;;;;;;0.20;0.20;;;10.70;99.90;;;;;;4995637;28;20054;-74
2021/10/08 04:23:37;;;;;;;0.10;0.10;;;10.80;99.90;;;;;;4995577;28;20037;-74
2021/10/08 04:26:03;;;;;;;0.10;0.10;;;10.90;99.90;;;;;;4995551;28;20084;-74
2021/10/08 04:28:29;;;;;;;0.10;0.10;;;10.90;99.90;;;;;;4996281;28;20030;-77
2021/10/08 04:30:56;;;;;;;0.20;0.20;;;10.90;99.90;;;;;;4977964;28;20080;-75
2021/10/08 04:33:23;;;;;;;0.20;0.20;;;10.90;99.90;;;;;;4977762;28;20082;-75
2021/10/08 04:35:49;;;;;;;0.10;0.10;;;10.90;99.90;;;;;;4990404;28;20101;-74
2021/10/08 04:38:16;;;;;;;0.10;0.10;;;10.90;99.90;;;;;;4945528;28;20051;-74
2021/10/08 04:40:42;;;;;;;0.10;0.10;;;10.90;99.90;;;;;;4994352;28;20019;-75
2021/10/08 04:43:08;;;;;;;0.20;0.20;;;10.90;99.90;;;;;;4991211;28;20027;-75
2021/10/08 04:45:33;;;;;;;0.10;0.10;;;10.90;99.90;;;;;;4990414;28;20022;-74
2021/10/08 04:47:59;;;;;;;0.15;0.15;;;10.80;99.90;;;;;;4978055;28;20022;-74
2021/10/08 04:50:26;;;;;;;0.10;0.10;;;10.80;99.90;;;;;;4977583;28;20022;-75
2021/10/08 04:52:52;;;;;;;0.10;0.10;;;10.70;99.90;;;;;;4964058;28;20049;-74
2021/10/08 04:55:18;;;;;;;0.10;0.10;;;10.80;99.90;;;;;;4975201;28;20031;-75
2021/10/08 04:57:43;;;;;;;0.25;0.25;;;10.80;99.90;;;;;;4941235;28;20026;-75
2021/10/08 05:00:10;;;;;;;0.20;0.20;;;10.90;99.90;;;;;;4975398;28;20015;-74
2021/10/08 05:02:36;;;;;;;0.15;0.15;;;10.90;99.90;;;;;;4975197;28;20059;-74
2021/10/08 05:05:03;;;;;;;2.85;2.00;;;10.80;99.90;;;;;;4975235;28;20030;-75
2021/10/08 05:07:28;;;;;;;0.10;0.10;;;10.70;99.90;;;;;;4975160;28;20026;-75
2021/10/08 05:09:54;;;;;;;0.10;0.10;;;10.60;99.90;;;;;;4971125;28;20397;-75
2021/10/08 05:12:25;;;;;;;0.10;0.10;;;10.70;99.90;;;;;;4994483;28;20417;-75
2021/10/08 05:14:52;;;;;;;0.10;0.10;;;10.70;99.90;;;;;;4976878;28;20034;-75
2021/10/08 05:17:18;;;;;;;0.10;0.10;;;10.70;99.90;;;;;;4994412;28;20022;-75
2021/10/08 05:19:44;;;;;;;0.40;0.40;;;10.80;99.90;;;;;;4994469;28;20102;-75
2021/10/08 05:22:10;;;;;;;0.10;0.10;;;10.80;99.90;;;;;;4994460;28;20098;-75
2021/10/08 05:24:35;;;;;;;0.15;0.15;;;10.80;99.90;;;;;;4976685;28;20122;-74
2021/10/08 05:27:01;;;;;;;0.10;0.10;;;10.80;99.90;;;;;;4976799;28;20118;-75
2021/10/08 05:29:27;;;;;;;0.10;0.10;;;10.80;99.90;;;;;;4976680;28;20092;-74
2021/10/08 05:31:53;;;;;;;0.10;0.10;;;10.90;99.90;;;;;;4976913;28;20483;-74
2021/10/08 05:34:19;;;;;;;0.10;0.10;;;10.80;99.90;;;;;;4994058;28;20030;-75
2021/10/08 05:36:49;;;;;;;0.10;0.10;;;10.80;99.90;;;;;;4967734;28;20043;-75
2021/10/08 05:39:18;;;;;;;0.10;0.10;;;10.90;99.90;;;;;;4989026;28;20022;-75
2021/10/08 05:41:44;;;;;;;0.10;0.10;;;10.90;99.90;;;;;;4957311;28;20554;-75
2021/10/08 05:44:10;;;;;;;0.20;0.20;;;10.90;99.90;;;;;;4984587;28;20034;-75
2021/10/08 05:46:36;;;;;;;0.70;0.28;;;11.00;99.90;;;;;;4993723;28;20022;-75
2021/10/08 05:49:02;;;;;;;0.10;0.10;;;11.00;99.90;;;;;;4976284;28;20022;-74
2021/10/08 05:51:28;;;;;;;0.10;0.10;;;10.90;99.90;;;;;;4993527;28;20033;-75
2021/10/08 05:53:53;;;;;;;0.10;0.10;;;10.80;99.90;;;;;;4974448;28;20035;-75
2021/10/08 05:56:19;;;;;;;0.20;0.20;;;10.80;99.90;;;;;;4956993;28;20034;-75
2021/10/08 05:58:45;;;;;;;0.32;0.32;;;10.70;99.90;;;;;;4956788;28;20038;-75
2021/10/08 06:01:11;;;;;;;0.10;0.10;;;10.70;99.90;;;;;;4957195;28;20364;-75
2021/10/08 06:03:37;;;;;;;0.10;0.10;;;10.70;99.90;;;;;;4956759;28;20133;-74
2021/10/08 06:06:03;;;;;;;0.10;0.10;;;10.70;99.90;;;;;;4956317;28;20038;-74
2021/10/08 06:08:29;;;;;;;0.20;0.20;;;10.70;99.90;;;;;;4940688;28;20466;-75
2021/10/08 06:10:55;;;;;;;0.55;0.55;;;10.70;99.90;;;;;;4993374;28;20019;-74
2021/10/08 06:13:21;;;;;;;0.10;0.10;;;10.70;99.90;;;;;;4976113;28;20030;-74
2021/10/08 06:15:47;;;;;;;0.10;0.10;;;10.70;99.90;;;;;;4975761;28;20030;-74
2021/10/08 06:18:13;;;;;;;0.32;0.32;;;10.70;99.90;;;;;;4959806;28;20029;-74
2021/10/08 06:20:38;;;;;;;0.22;0.22;;;10.60;99.90;;;;;;4993202;28;20057;-74
2021/10/08 06:23:04;;;;;;;0.10;0.10;;;10.60;99.90;;;;;;4975369;28;20026;-75
2021/10/08 06:25:30;;;;;;;0.10;0.10;;;10.50;99.90;;;;;;4991553;28;20022;-75
2021/10/08 06:27:56;;;;;;;0.10;0.10;;;10.60;99.90;;;;;;4992584;28;20034;-75
2021/10/08 06:30:22;;;;;;;2.92;0.35;;;10.60;99.90;;;;;;4992542;28;20050;-74
2021/10/08 06:32:49;;;;;;;0.10;0.10;;;10.70;99.90;;;;;;4975095;28;20026;-75
2021/10/08 06:35:15;;;;;;;0.10;0.10;;;10.60;99.90;;;;;;4992037;28;20026;-75
2021/10/08 06:37:41;;;;;;;0.73;0.73;;;10.60;99.90;;;;;;4975424;28;20482;-75
2021/10/08 06:40:07;;;;;;;0.10;0.10;;;10.60;99.90;;;;;;4992959;28;20029;-74
2021/10/08 06:42:33;;;;;;;0.10;0.10;;;10.60;99.90;;;;;;4975500;28;20537;-74
2021/10/08 06:44:59;;;;;;;0.10;0.10;;;10.70;99.90;;;;;;4981659;28;20396;-74
2021/10/08 06:47:25;;;;;;;0.60;0.60;;;10.60;99.90;;;;;;4997567;28;20097;-74
2021/10/08 06:49:51;;;;;;;0.10;0.10;;;10.70;99.90;;;;;;4992811;28;20541;-74
2021/10/08 06:52:17;;;;;;;0.10;0.10;;;10.80;99.90;;;;;;4951586;28;20169;-75
2021/10/08 06:54:43;;;;;;;0.10;0.10;;;10.80;99.90;;;;;;4955875;28;20098;-73
2021/10/08 06:57:10;;;;;;;0.10;0.10;;;10.80;99.90;;;;;;4965116;28;20109;-74
2021/10/08 06:59:36;;;;;;;0.10;0.10;;;10.80;99.90;;;;;;4995433;28;20017;-73
2021/10/08 07:02:02;;;;;;;0.95;0.52;;;10.80;99.90;;;;;;5007152;28;20026;-74
2021/10/08 07:04:27;;;;;;;0.63;0.63;;;10.80;99.90;;;;;;5011986;28;20033;-74
2021/10/08 07:06:53;;;;;;;1.45;0.45;;;10.80;99.90;;;;;;4978289;28;20436;-74
2021/10/08 07:09:19;;;;;;;0.55;0.55;;;10.80;99.90;;;;;;4994282;28;20390;-74
2021/10/08 07:11:45;;;;;;;0.35;0.35;;;10.80;99.90;;;;;;5011978;28;20030;-74
2021/10/08 07:14:11;;;;;;;2.15;1.92;;;10.80;99.90;;;;;;4994271;28;20030;-73
2021/10/08 07:16:37;;;;;;;0.10;0.10;;;10.90;99.90;;;;;;5011827;28;20351;-74
2021/10/08 07:19:15;;;;;;;0.10;0.10;;;10.90;99.90;;;;;;4978052;28;20509;-74
2021/10/08 07:21:44;;;;;;;0.10;0.10;;;10.90;99.90;;;;;;5000493;28;20465;-74
2021/10/08 07:24:10;;;;;;;0.10;0.10;;;10.90;99.90;;;;;;5000960;28;20075;-74
2021/10/08 07:26:36;;;;;;;0.25;0.25;;;10.90;99.90;;;;;;5018342;28;20057;-73
2021/10/08 07:29:03;;;;;;;0.20;0.20;;;11.00;99.90;;;;;;5018371;28;20401;-74
2021/10/08 07:31:28;;;;;;;0.25;0.25;;;11.00;99.90;;;;;;5000736;28;20486;-74
2021/10/08 07:33:54;;;;;;;0.20;0.20;;;11.10;99.90;;;;;;5000782;28;20036;-74
2021/10/08 07:36:20;;;;;;;0.20;0.20;;;11.00;99.90;;;;;;5000720;28;20474;-74
2021/10/08 07:38:47;;;;;;;0.20;0.20;;;11.10;99.90;;;;;;5018301;28;20384;-74
2021/10/08 07:41:13;;;;;;;0.15;0.15;;;11.20;99.90;;;;;;5000411;28;20029;-74
2021/10/08 07:43:40;;;;;;;0.10;0.10;;;11.10;99.90;;;;;;5000444;28;20026;-74
2021/10/08 07:46:07;;;;;;;4.38;1.02;;;11.00;99.90;;;;;;5018135;28;20053;-74
2021/10/08 07:48:33;;;;;;;0.50;0.50;;;11.10;99.90;;;;;;5000369;28;20025;-74
2021/10/08 07:50:59;;;;;;;0.10;0.10;;;11.00;99.90;;;;;;5018184;28;20029;-74
2021/10/08 07:53:26;;;;;;;2.78;2.58;;;10.90;99.90;;;;;;5018255;28;20101;-74
2021/10/08 07:55:52;;;;;;;0.30;0.30;;;10.90;99.90;;;;;;5017982;28;20022;-73
2021/10/08 07:58:17;;;;;;;2.28;1.40;;;10.80;99.90;;;;;;5017944;28;20393;-74
2021/10/08 08:00:43;;;;;;;4.38;0.95;;;10.70;99.90;;;;;;5018214;28;20065;-74
2021/10/08 08:03:09;;;;;;;0.10;0.10;;;10.70;99.90;;;;;;5018007;28;20036;-74
2021/10/08 08:05:35;;;;;;;0.10;0.10;;;10.70;99.90;;;;;;5017950;28;20026;-74
2021/10/08 08:08:02;;;;;;;0.10;0.10;;;10.90;99.90;;;;;;5017916;28;20465;-74
2021/10/08 08:10:28;;;;;;;0.20;0.20;;;10.90;99.90;;;;;;5000412;28;20022;-74
2021/10/08 08:12:54;;;;;;;2.65;1.40;;;10.90;99.90;;;;;;5018141;28;20101;-73
2021/10/08 08:15:20;;;;;;;0.00;0.00;;;11.00;99.90;;;;;;5000206;28;20426;-74
2021/10/08 08:17:45;;;;;;;0.95;0.90;;;11.00;99.90;;;;;;5017738;28;20036;-74
2021/10/08 08:20:11;;;;;;;0.10;0.10;;;10.90;99.90;;;;;;4999836;28;20030;-74
2021/10/08 08:22:37;;;;;;;0.57;0.32;;;10.90;99.90;;;;;;5017615;28;20030;-74
2021/10/08 08:25:04;;;;;;;0.20;0.20;;;10.90;99.90;;;;;;5017612;28;20026;-74
2021/10/08 08:27:30;;;;;;;0.20;0.20;;;11.00;99.90;;;;;;5017609;28;20026;-74
2021/10/08 08:29:56;;;;;;;1.75;1.38;;;11.10;99.90;;;;;;5017686;28;20076;-74
2021/10/08 08:32:22;;;;;;;0.20;0.20;;;11.20;99.90;;;;;;5014195;28;20045;-74
2021/10/08 08:34:48;;;;;;;0.52;0.52;;;11.20;99.90;;;;;;5014189;28;20029;-74
2021/10/08 08:37:14;;;;;;;0.70;0.65;;;11.20;99.90;;;;;;4996884;28;20073;-74
2021/10/08 08:39:41;;;;;;;0.45;0.45;;;11.10;99.90;;;;;;4980866;28;20153;-75
2021/10/08 08:42:07;;;;;;;3.85;1.85;;;11.10;99.90;;;;;;5014621;28;20101;-75
2021/10/08 08:44:34;;;;;;;0.20;0.20;;;11.00;99.90;;;;;;4996706;28;20173;-75
2021/10/08 08:47:00;;;;;;;0.10;0.10;;;10.90;99.90;;;;;;5014156;28;20537;-74
2021/10/08 08:49:26;;;;;;;0.68;0.68;;;10.80;99.90;;;;;;4996909;28;20057;-75
2021/10/08 08:51:52;;;;;;;10.63;1.95;;;11.00;99.90;;;;;;5014058;28;20467;-75
2021/10/08 08:54:19;;;;;;;0.20;0.20;;;11.00;99.90;;;;;;5014021;28;20030;-75
2021/10/08 08:56:45;;;;;;;3.20;1.17;;;11.00;99.90;;;;;;4996145;28;20050;-75
2021/10/08 08:59:13;;;;;;;3.35;1.95;;;11.20;99.90;;;;;;5014302;28;20076;-75
2021/10/08 09:01:58;;;;;;;0.20;0.20;;;11.20;99.90;;;;;;4996674;28;20125;-75
2021/10/08 09:04:28;;;;;;;0.10;0.10;;;11.30;99.90;;;;;;5014299;28;20033;-76
2021/10/08 09:06:54;;;;;;;0.70;0.25;;;11.30;99.90;;;;;;4996628;28;20478;-76
2021/10/08 09:09:21;;;;;;;0.10;0.10;;;11.20;99.90;;;;;;5014086;28;20026;-75
2021/10/08 09:11:49;;;;;;;6.75;6.13;;;11.30;99.90;;;;;;4996535;28;20513;-76
2021/10/08 09:14:23;;;;;;;2.17;0.90;;;11.30;99.90;;;;;;5014022;28;20022;-75
2021/10/08 09:17:10;;;;;;;1.05;0.98;;;11.30;99.90;;;;;;4996302;28;20033;-76
2021/10/08 09:19:47;;;;;;;0.60;0.60;;;11.20;99.90;;;;;;5008420;28;20050;-76
2021/10/08 09:22:19;;;;;;;0.20;0.20;;;11.10;99.90;;;;;;4994314;28;20464;-75
2021/10/08 09:24:45;;;;;;;0.20;0.20;;;11.10;99.90;;;;;;4994168;28;20030;-75
2021/10/08 09:27:13;;;;;;;0.93;0.93;;;11.10;99.90;;;;;;4976869;28;20038;-75
2021/10/08 09:29:55;;;;;;;1.38;1.23;;;11.10;99.90;;;;;;4976611;28;20030;-74
2021/10/08 09:32:23;;;;;;;1.10;1.08;;;11.10;99.90;;;;;;4994109;28;20402;-74
2021/10/08 09:35:03;;;;;;;0.15;0.15;;;11.10;99.90;;;;;;4989687;28;20402;-74
2021/10/08 09:37:30;;;;;;;0.20;0.20;;;11.30;99.90;;;;;;4955694;28;20027;-75
2021/10/08 09:39:55;;;;;;;1.63;1.52;;;11.40;99.90;;;;;;4959411;28;20023;-74
2021/10/08 09:42:30;;;;;;;0.10;0.10;;;11.40;99.90;;;;;;4972641;28;20023;-75
2021/10/08 09:44:56;;;;;;;0.70;0.70;;;11.40;99.90;;;;;;4972919;28;20042;-74
2021/10/08 09:47:24;;;;;;;1.75;1.08;;;11.50;99.90;;;;;;4957336;28;20395;-74
2021/10/08 09:49:52;;;;;;;5.47;3.03;;;11.50;99.90;;;;;;4982670;28;20026;-74
2021/10/08 09:52:23;;;;;;;3.55;2.17;;;11.40;99.90;;;;;;4973891;28;20027;-75
2021/10/08 09:54:50;;;;;;;2.75;2.15;;;11.30;99.90;;;;;;4972261;28;20454;-75
2021/10/08 09:57:17;;;;;;;0.63;0.63;;;11.10;99.90;;;;;;4956654;28;20023;-75
2021/10/08 09:59:43;;;;;;;7.20;3.40;;;11.10;99.90;;;;;;4974105;28;20109;-75
2021/10/08 10:02:09;;;;;;;4.68;2.55;;;11.10;99.90;;;;;;4973966;28;20055;-75
2021/10/08 10:04:59;;;;;;;3.92;2.72;;;11.10;99.90;;;;;;4956799;28;20022;-75
2021/10/08 10:07:25;;;;;;;0.60;0.52;;;11.10;99.90;;;;;;4933045;28;20353;-75
2021/10/08 10:09:51;;;;;;;0.30;0.30;;;11.20;99.90;;;;;;4956586;28;20034;-75
2021/10/08 10:12:19;;;;;;;0.13;0.13;;;11.30;99.90;;;;;;4956246;28;20399;-75
2021/10/08 10:14:49;;;;;;;0.30;0.30;;;11.40;99.90;;;;;;4956218;28;20026;-75
2021/10/08 10:17:17;;;;;;;7.03;1.58;;;11.40;99.90;;;;;;4939998;28;20542;-75
2021/10/08 10:19:45;;;;;;;4.93;2.58;;;11.50;99.90;;;;;;4940227;28;20101;-75
2021/10/08 10:22:16;;;;;;;3.10;2.10;;;11.40;99.90;;;;;;4956126;28;20058;-75
2021/10/08 10:24:47;;;;;;;0.70;0.70;;;11.50;99.90;;;;;;4973289;28;20026;-75
2021/10/08 10:27:17;;;;;;;2.03;1.00;;;11.40;99.90;;;;;;4973479;28;20054;-75
2021/10/08 10:29:45;;;;;;;1.20;0.57;;;11.40;99.90;;;;;;4939942;28;20435;-75
2021/10/08 10:32:12;;;;;;;1.88;0.82;;;11.50;99.90;;;;;;4973518;28;20030;-75
2021/10/08 10:34:39;;;;;;;4.18;2.20;;;11.70;99.90;;;;;;4939609;28;20189;-75
2021/10/08 10:37:07;;;;;;;1.05;0.95;;;11.80;99.90;;;;;;4971950;28;20487;-75
2021/10/08 10:39:33;;;;;;;13.40;2.15;;;11.80;99.90;;;;;;4955791;28;20514;-75
2021/10/08 10:42:02;;;;;;;2.00;1.75;;;11.90;99.90;;;;;;4973265;28;20055;-75
2021/10/08 10:44:33;;;;;;;0.38;0.38;;;12.10;99.90;;;;;;4939832;28;20030;-75
2021/10/08 10:47:18;;;;;;;4.18;3.15;;;12.70;99.90;;;;;;4955962;28;20558;-74
2021/10/08 10:49:53;;;;;;;3.33;3.13;;;13.40;99.90;;;;;;4955745;28;20026;-75
2021/10/08 10:52:22;;;;;;;1.45;1.33;;;14.00;99.90;;;;;;4963317;28;20046;-75
2021/10/08 10:54:53;;;;;;;6.93;3.92;;;14.00;99.90;;;;;;4977138;28;20034;-75
2021/10/08 10:57:23;;;;;;;0.73;0.73;;;14.40;99.90;;;;;;4955674;28;20027;-75
2021/10/08 10:59:49;;;;;;;8.10;3.78;;;14.80;99.90;;;;;;4977620;28;20037;-75
2021/10/08 11:02:25;;;;;;;5.78;3.88;;;15.30;99.90;;;;;;4992169;28;20074;-75
2021/10/08 11:05:08;;;;;;;2.17;1.58;;;15.10;99.90;;;;;;4974713;28;20073;-75
2021/10/08 11:07:34;;;;;;;3.80;2.20;;;14.90;99.90;;;;;;4973557;28;20062;-74
2021/10/08 11:10:03;;;;;;;5.93;3.28;;;15.60;99.90;;;;;;4992282;28;20030;-75
2021/10/08 11:12:40;;;;;;;0.10;0.10;;;15.40;99.90;;;;;;4992440;28;20556;-75
2021/10/08 11:15:15;;;;;;;1.42;1.33;;;15.20;99.90;;;;;;4974642;28;20058;-75
2021/10/08 11:18:07;;;;;;;4.43;2.97;;;15.00;99.90;;;;;;4974714;28;20018;-75
2021/10/08 11:20:38;;;;;;;;;;;14.70;99.90;;;;;;4988958;28;20093;-75
2021/10/08 11:23:24;;;;;;;1.92;1.13;;;14.50;99.90;;;;;;4992542;28;19953;-76
2021/10/08 11:25:56;;;;;;;3.20;2.90;;;14.50;99.90;;;;;;4958523;28;20026;-75
2021/10/08 11:28:26;;;;;;;;;;;14.40;99.90;;;;;;4992332;28;20368;-75
2021/10/08 11:30:52;;;;;;;0.22;0.22;;;14.20;99.90;;;;;;4992132;28;19910;-75
2021/10/08 11:33:33;;;;;;;4.32;4.05;;;15.00;99.90;;;;;;4992104;28;20038;-75
2021/10/08 11:36:18;;;;;;;3.43;3.23;;;15.40;99.90;;;;;;4990716;28;20025;-75
2021/10/08 11:38:44;;;;;;;1.25;0.75;;;16.10;99.90;;;;;;4982562;28;20022;-75
2021/10/08 11:41:23;;;;;;;2.15;2.05;;;16.80;99.60;;;;;;4979734;28;20085;-75
2021/10/08 11:44:02;;;;;;;5.35;3.42;;;16.90;98.10;;;;;;4969517;28;20389;-75
2021/10/08 11:46:37;;;;;;;4.78;2.70;;;16.60;97.30;;;;;;4972606;28;20521;-75
2021/10/08 11:49:21;;;;;;;2.83;2.10;;;16.50;97.60;;;;;;4993683;28;20030;-76
2021/10/08 11:51:56;;;;;;;4.38;2.55;;;16.50;96.80;;;;;;5011662;28;20025;-75
2021/10/08 11:54:21;;;;;;;5.47;1.08;;;16.30;96.40;;;;;;4995493;28;20022;-74
2021/10/08 11:57:04;;;;;;;3.17;0.98;;;16.30;96.60;;;;;;4974099;28;20032;-75
2021/10/08 11:59:31;;;;;;;2.28;1.38;;;16.90;94.60;;;;;;4992007;28;20105;-74
2021/10/08 12:02:14;;;;;;;1.75;1.65;;;17.70;92.90;;;;;;4974202;28;20081;-75
2021/10/08 12:04:56;;;;;;;0.70;0.55;;;18.50;90.50;;;;;;4974221;28;20058;-75
2021/10/08 12:07:21;;;;;;;3.53;2.63;;;18.60;87.00;;;;;;4994518;28;20034;-74
2021/10/08 12:10:13;;;;;;;0.63;0.63;;;18.40;85.50;;;;;;4995427;28;20038;-75
2021/10/08 12:12:50;;;;;;;2.05;1.83;;;18.50;86.00;;;;;;4978175;28;20594;-74
2021/10/08 12:15:24;;;;;;;1.20;0.77;;;19.20;82.40;;;;;;4995331;28;20069;-77
2021/10/08 12:17:52;;;;;;;12.38;6.43;;;19.40;79.30;;;;;;4977988;28;20398;-76
2021/10/08 12:20:26;;;;;;;9.15;2.60;;;19.00;79.50;;;;;;4977988;28;20026;-76
2021/10/08 12:23:23;;;;;;;3.53;2.88;;;19.00;80.80;;;;;;4977891;28;20026;-76
2021/10/08 12:25:52;;;;;;;1.75;1.38;;;18.30;80.60;;;;;;4961765;28;20068;-76
2021/10/08 12:28:20;;;;;;;3.47;1.80;;;17.80;83.20;;;;;;4978041;28;20057;-76
2021/10/08 12:31:12;;;;;;;0.15;0.15;;;17.50;84.20;;;;;;4995170;28;20022;-75
2021/10/08 12:33:40;;;;;;;1.85;0.63;;;17.90;86.20;;;;;;4980143;28;20118;-75
2021/10/08 12:36:23;;;;;;;5.82;2.05;;;18.30;84.10;;;;;;4975260;28;20034;-75
2021/10/08 12:38:53;;;;;;;0.15;0.15;;;18.40;82.60;;;;;;4975750;28;20026;-75
2021/10/08 12:41:34;;;;;;;0.50;0.50;;;18.70;80.60;;;;;;4942261;28;20034;-75
2021/10/08 12:44:29;;;;;;;0.63;0.43;;;18.70;78.90;;;;;;4975496;28;20486;-74
2021/10/08 12:47:38;;;;;;;0.20;0.20;;;18.30;79.90;;;;;;4974224;28;20566;-75
2021/10/08 12:50:00;;;;;;;2.08;1.27;;;17.70;82.80;;;;;;4952952;28;20038;-75
2021/10/08 12:52:36;;;;;;;3.60;1.65;;;17.20;84.70;;;;;;4975554;28;20035;-74
2021/10/08 12:55:11;;;;;;;3.13;1.80;;;16.60;87.20;;;;;;4975181;28;20049;-74